createdAt,value
2022-12-16T00:00:09.046Z,1.70
2022-12-16T00:02:36.375Z,1.70
2022-12-16T00:05:04.101Z,1.70
2022-12-16T00:07:30.989Z,1.70
2022-12-16T00:09:57.785Z,1.70
2022-12-16T00:12:24.631Z,1.70
2022-12-16T00:14:51.839Z,1.70
2022-12-16T00:17:18.694Z,1.70
2022-12-16T00:19:45.642Z,1.70
2022-12-16T00:22:12.432Z,1.70
2022-12-16T00:24:39.199Z,1.70
2022-12-16T00:27:06.059Z,1.70
2022-12-16T00:29:33.044Z,1.60
2022-12-16T00:32:00.017Z,1.60
2022-12-16T00:34:27.270Z,1.60
2022-12-16T00:36:54.507Z,1.60
2022-12-16T00:39:22.214Z,1.60
2022-12-16T00:41:49.039Z,1.70
2022-12-16T00:44:15.907Z,1.60
2022-12-16T00:46:43.096Z,1.60
2022-12-16T00:49:09.898Z,1.60
2022-12-16T00:51:36.954Z,1.60
2022-12-16T00:54:03.913Z,1.60
2022-12-16T00:56:30.801Z,1.60
2022-12-16T00:58:57.579Z,1.60
2022-12-16T01:01:24.578Z,1.70
2022-12-16T01:03:51.511Z,1.70
2022-12-16T01:06:18.694Z,1.70
2022-12-16T01:08:48.465Z,1.70
2022-12-16T01:11:20.646Z,1.70
2022-12-16T01:13:51.367Z,1.70
2022-12-16T01:16:19.353Z,1.70
2022-12-16T01:18:46.335Z,1.70
2022-12-16T01:21:15.483Z,1.70
2022-12-16T01:23:42.539Z,1.70
2022-12-16T01:26:14.464Z,1.80
2022-12-16T01:28:41.240Z,1.70
2022-12-16T01:31:08.209Z,1.80
2022-12-16T01:33:35.628Z,1.80
2022-12-16T01:36:06.091Z,1.70
2022-12-16T01:38:33.583Z,1.70
2022-12-16T01:41:00.976Z,1.70
2022-12-16T01:43:34.007Z,1.70
2022-12-16T01:46:06.581Z,1.70
2022-12-16T01:48:36.451Z,1.70
2022-12-16T01:51:13.961Z,1.70
2022-12-16T01:53:43.893Z,1.70
2022-12-16T01:56:12.686Z,1.70
2022-12-16T01:58:41.252Z,1.70
2022-12-16T02:01:09.094Z,1.70
2022-12-16T02:03:37.679Z,1.60
2022-12-16T02:06:06.459Z,1.60
2022-12-16T02:08:33.367Z,1.60
2022-12-16T02:11:26.284Z,1.60
2022-12-16T02:14:21.989Z,1.50
2022-12-16T02:17:26.393Z,1.50
2022-12-16T02:20:39.621Z,1.50
2022-12-16T02:23:37.367Z,1.40
2022-12-16T02:26:50.486Z,1.50
2022-12-16T02:29:23.003Z,1.40
2022-12-16T02:32:14.574Z,1.40
2022-12-16T02:35:03.525Z,1.40
2022-12-16T02:37:45.723Z,1.40
2022-12-16T02:40:38.806Z,1.40
2022-12-16T02:43:23.930Z,1.40
2022-12-16T02:45:51.480Z,1.40
2022-12-16T02:48:19.440Z,1.30
2022-12-16T02:50:50.971Z,1.30
2022-12-16T02:53:19.646Z,1.30
2022-12-16T02:56:01.255Z,1.30
2022-12-16T02:58:36.257Z,1.30
2022-12-16T03:01:14.692Z,1.20
2022-12-16T03:04:08.558Z,1.20
2022-12-16T03:10:45.925Z,1.20
2022-12-16T03:13:14.660Z,1.20
2022-12-16T03:15:43.817Z,1.20
2022-12-16T03:18:13.920Z,1.10
2022-12-16T03:21:01.926Z,1.10
2022-12-16T03:23:37.970Z,1.10
2022-12-16T03:26:10.860Z,1.10
2022-12-16T03:29:08.016Z,1.10
2022-12-16T03:31:58.118Z,1.10
2022-12-16T03:34:41.721Z,1.10
2022-12-16T03:37:11.655Z,1.00
2022-12-16T03:39:43.979Z,1.00
2022-12-16T03:42:11.613Z,1.00
2022-12-16T03:44:39.222Z,1.00
2022-12-16T03:47:06.599Z,1.00
2022-12-16T03:49:33.538Z,1.00
2022-12-16T03:52:00.952Z,1.00
2022-12-16T03:54:27.999Z,1.00
2022-12-16T03:56:54.861Z,0.90
2022-12-16T03:59:21.915Z,0.90
2022-12-16T04:01:50.038Z,0.90
2022-12-16T04:04:18.151Z,0.90
2022-12-16T04:06:44.958Z,0.90
2022-12-16T04:09:11.808Z,0.90
2022-12-16T04:11:57.150Z,0.90
2022-12-16T04:14:42.414Z,0.90
2022-12-16T04:17:31.390Z,0.90
2022-12-16T04:20:17.008Z,0.90
2022-12-16T04:23:02.735Z,0.90
2022-12-16T04:25:36.407Z,0.90
2022-12-16T04:28:03.539Z,0.90
2022-12-16T04:30:34.851Z,0.90
2022-12-16T04:33:27.766Z,0.90
2022-12-16T04:36:13.342Z,0.90
2022-12-16T04:38:58.752Z,0.90
2022-12-16T04:41:44.350Z,0.90
2022-12-16T04:44:30.040Z,0.90
2022-12-16T04:47:15.390Z,0.90
2022-12-16T04:50:00.688Z,0.80
2022-12-16T04:52:46.176Z,0.90
2022-12-16T04:55:31.835Z,0.90
2022-12-16T04:58:19.129Z,0.90
2022-12-16T05:01:19.925Z,0.80
2022-12-16T05:04:05.673Z,0.80
2022-12-16T05:06:51.194Z,0.90
2022-12-16T05:09:36.572Z,0.80
2022-12-16T05:12:22.146Z,0.80
2022-12-16T05:15:07.705Z,0.80
2022-12-16T05:17:53.142Z,0.80
2022-12-16T05:20:38.796Z,0.80
2022-12-16T05:23:23.994Z,0.70
2022-12-16T05:26:10.301Z,0.70
2022-12-16T05:28:56.832Z,0.70
2022-12-16T05:31:43.599Z,0.70
2022-12-16T05:34:31.281Z,0.70
2022-12-16T05:37:18.607Z,0.60
2022-12-16T05:40:05.401Z,0.60
2022-12-16T05:42:52.354Z,0.60
2022-12-16T05:45:39.742Z,0.60
2022-12-16T05:48:26.561Z,0.60
2022-12-16T05:51:12.887Z,0.50
2022-12-16T05:53:59.770Z,0.50
2022-12-16T05:56:46.154Z,0.50
2022-12-16T05:59:33.532Z,0.50
2022-12-16T06:02:19.575Z,0.40
2022-12-16T06:05:05.313Z,0.40
2022-12-16T06:07:51.261Z,0.40
2022-12-16T06:10:36.960Z,0.30
2022-12-16T06:13:26.971Z,0.30
2022-12-16T06:16:12.594Z,0.30
2022-12-16T06:18:57.944Z,0.30
2022-12-16T06:21:43.328Z,0.30
2022-12-16T06:24:28.848Z,0.30
2022-12-16T06:27:14.160Z,0.30
2022-12-16T06:29:59.591Z,0.30
2022-12-16T06:32:45.042Z,0.20
2022-12-16T06:35:30.579Z,0.20
2022-12-16T06:38:16.045Z,0.20
2022-12-16T06:41:21.118Z,0.20
2022-12-16T06:44:06.570Z,0.20
2022-12-16T06:46:52.243Z,0.20
2022-12-16T06:49:37.833Z,0.20
2022-12-16T06:52:23.155Z,0.20
2022-12-16T06:55:08.385Z,0.10
2022-12-16T06:57:53.698Z,0.10
2022-12-16T07:00:39.288Z,0.10
2022-12-16T07:03:24.639Z,0.00
2022-12-16T07:06:13.676Z,0.10
2022-12-16T07:08:59.036Z,0.10
2022-12-16T07:11:44.448Z,0.00
2022-12-16T07:14:29.963Z,0.10
2022-12-16T07:17:17.401Z,0.00
2022-12-16T07:20:03.752Z,0.00
2022-12-16T07:22:58.409Z,0.00
2022-12-16T07:25:50.369Z,0.00
2022-12-16T07:28:38.232Z,0.00
2022-12-16T07:31:24.527Z,0.00
2022-12-16T07:34:11.342Z,0.00
2022-12-16T07:36:58.384Z,0.00
2022-12-16T07:39:48.702Z,0.00
2022-12-16T07:42:38.847Z,0.00
2022-12-16T07:45:25.703Z,0.00
2022-12-16T07:48:12.696Z,-0.10
2022-12-16T07:50:59.147Z,0.00
2022-12-16T07:53:46.014Z,-0.10
2022-12-16T07:56:33.197Z,-0.10
2022-12-16T07:59:20.409Z,-0.10
2022-12-16T08:02:06.569Z,-0.10
2022-12-16T08:04:52.496Z,-0.10
2022-12-16T08:07:37.932Z,-0.10
2022-12-16T08:10:23.266Z,-0.10
2022-12-16T08:13:08.998Z,-0.10
2022-12-16T08:15:54.520Z,-0.10
2022-12-16T08:18:41.315Z,-0.10
2022-12-16T08:21:34.242Z,-0.10
2022-12-16T08:24:19.883Z,-0.10
2022-12-16T08:27:05.175Z,-0.10
2022-12-16T08:29:50.560Z,-0.10
2022-12-16T08:32:36.533Z,-0.10
2022-12-16T08:35:21.960Z,-0.10
2022-12-16T08:38:12.252Z,0.00
2022-12-16T08:41:03.548Z,0.00
2022-12-16T08:43:51.068Z,0.10
2022-12-16T08:46:37.318Z,0.10
2022-12-16T08:49:23.843Z,0.20
2022-12-16T08:52:09.768Z,0.20
2022-12-16T08:54:55.621Z,0.30
2022-12-16T08:57:42.227Z,0.30
2022-12-16T09:00:28.289Z,0.40
2022-12-16T09:03:15.918Z,0.50
2022-12-16T09:06:01.740Z,0.50
2022-12-16T09:08:47.710Z,0.60
2022-12-16T09:11:33.085Z,0.70
2022-12-16T09:14:18.571Z,0.80
2022-12-16T09:17:03.793Z,0.90
2022-12-16T09:19:49.438Z,0.90
2022-12-16T09:22:34.819Z,1.00
2022-12-16T09:25:20.126Z,1.10
2022-12-16T09:28:08.220Z,1.20
2022-12-16T09:30:54.342Z,1.30
2022-12-16T09:33:41.164Z,1.30
2022-12-16T09:36:26.746Z,1.40
2022-12-16T09:39:12.102Z,1.50
2022-12-16T09:42:14.120Z,1.60
2022-12-16T09:45:24.568Z,1.60
2022-12-16T09:48:31.356Z,1.80
2022-12-16T09:51:22.985Z,1.80
2022-12-16T09:54:11.982Z,1.90
2022-12-16T09:56:57.529Z,2.00
2022-12-16T10:00:03.686Z,2.00
2022-12-16T10:02:50.799Z,2.10
2022-12-16T10:05:49.509Z,2.10
2022-12-16T10:08:50.635Z,2.20
2022-12-16T10:11:48.760Z,2.20
2022-12-16T10:14:45.356Z,2.30
2022-12-16T10:17:44.899Z,2.30
2022-12-16T10:20:49.321Z,2.30
2022-12-16T10:24:01.727Z,2.40
2022-12-16T10:27:04.424Z,2.40
2022-12-16T10:29:56.171Z,2.40
2022-12-16T10:33:07.314Z,2.40
2022-12-16T10:35:58.358Z,2.50
2022-12-16T10:38:55.934Z,2.50
2022-12-16T10:41:44.466Z,2.60
2022-12-16T10:45:09.607Z,2.60
2022-12-16T10:47:55.238Z,2.70
2022-12-16T10:50:41.571Z,2.70
2022-12-16T10:53:34.069Z,2.80
2022-12-16T10:56:52.502Z,2.80
2022-12-16T10:59:38.914Z,2.90
2022-12-16T11:02:38.185Z,2.90
2022-12-16T11:05:53.708Z,3.00
2022-12-16T11:08:46.405Z,3.00
2022-12-16T11:11:39.877Z,3.00
2022-12-16T11:15:28.207Z,3.00
2022-12-16T11:18:23.577Z,3.10
2022-12-16T11:21:24.973Z,3.10
2022-12-16T11:24:37.677Z,3.10
2022-12-16T11:27:33.871Z,3.10
2022-12-16T11:30:22.646Z,3.20
2022-12-16T11:33:17.503Z,3.20
2022-12-16T11:36:11.467Z,3.20
2022-12-16T11:39:06.716Z,3.10
2022-12-16T11:41:59.320Z,3.10
2022-12-16T11:45:02.623Z,3.10
2022-12-16T11:48:05.116Z,3.10
2022-12-16T11:50:55.497Z,3.10
2022-12-16T11:54:04.557Z,3.10
2022-12-16T11:56:54.107Z,3.00
2022-12-16T12:00:03.510Z,3.10
2022-12-16T12:02:57.696Z,3.10
2022-12-16T12:06:01.323Z,3.10
2022-12-16T12:09:06.370Z,3.10
2022-12-16T12:11:57.073Z,3.00
2022-12-16T12:14:54.145Z,3.10
2022-12-16T12:17:40.005Z,3.10
2022-12-16T12:20:42.505Z,3.00
2022-12-16T12:23:32.858Z,3.10
2022-12-16T12:26:18.388Z,3.10
2022-12-16T12:29:12.932Z,3.10
2022-12-16T12:32:10.258Z,3.10
2022-12-16T12:35:42.739Z,3.10
2022-12-16T12:38:37.033Z,3.20
2022-12-16T12:41:42.588Z,3.20
2022-12-16T12:44:49.543Z,3.20
2022-12-16T12:47:36.093Z,3.20
2022-12-16T12:50:35.563Z,3.20
2022-12-16T12:53:53.074Z,3.30
2022-12-16T12:57:10.010Z,3.30
2022-12-16T13:00:18.907Z,3.30
2022-12-16T13:03:26.550Z,3.30
2022-12-16T13:06:12.972Z,3.30
2022-12-16T13:09:07.420Z,3.30
2022-12-16T13:11:53.829Z,3.30
2022-12-16T13:14:49.568Z,3.40
2022-12-16T13:17:39.593Z,3.40
2022-12-16T13:20:50.779Z,3.40
2022-12-16T13:23:54.934Z,3.40
2022-12-16T13:26:42.908Z,3.50
2022-12-16T13:29:39.080Z,3.50
2022-12-16T13:32:30.491Z,3.50
2022-12-16T13:35:23.603Z,3.50
2022-12-16T13:38:18.809Z,3.60
2022-12-16T13:41:16.332Z,3.60
2022-12-16T13:44:08.132Z,3.60
2022-12-16T13:47:01.544Z,3.60
2022-12-16T13:49:56.245Z,3.60
2022-12-16T13:53:30.712Z,3.70
2022-12-16T13:56:19.037Z,3.60
2022-12-16T13:59:16.902Z,3.70
2022-12-16T14:02:11.856Z,3.70
2022-12-16T14:05:02.863Z,3.70
2022-12-16T14:07:51.993Z,3.70
2022-12-16T14:10:56.543Z,3.80
2022-12-16T14:13:51.091Z,3.80
2022-12-16T14:17:03.002Z,3.80
2022-12-16T14:20:26.249Z,3.80
2022-12-16T14:23:56.409Z,3.80
2022-12-16T14:26:43.531Z,3.80
2022-12-16T14:30:06.710Z,3.90
2022-12-16T14:32:53.585Z,3.90
2022-12-16T14:35:45.614Z,3.90
2022-12-16T14:38:49.633Z,3.90
2022-12-16T14:41:40.794Z,3.90
2022-12-16T14:44:53.599Z,3.90
2022-12-16T14:47:40.782Z,3.90
2022-12-16T14:50:48.195Z,3.90
2022-12-16T14:53:36.904Z,4.00
2022-12-16T14:56:49.039Z,4.00
2022-12-16T14:59:37.328Z,4.00
2022-12-16T15:02:43.061Z,4.00
2022-12-16T15:05:29.234Z,3.90
2022-12-16T15:08:14.756Z,4.00
2022-12-16T15:11:00.461Z,4.00
2022-12-16T15:13:46.432Z,4.00
2022-12-16T15:16:38.938Z,4.00
2022-12-16T15:19:24.823Z,4.00
2022-12-16T15:22:10.345Z,4.00
2022-12-16T15:24:57.536Z,4.00
2022-12-16T15:27:53.889Z,4.00
2022-12-16T15:31:01.741Z,4.00
2022-12-16T15:33:56.420Z,4.00
2022-12-16T15:36:46.497Z,4.00
2022-12-16T15:39:47.525Z,4.00
2022-12-16T15:42:48.317Z,4.00
2022-12-16T15:45:47.771Z,3.90
2022-12-16T15:48:47.201Z,3.90
2022-12-16T15:52:01.836Z,3.90
2022-12-16T15:54:47.001Z,3.90
2022-12-16T15:57:53.204Z,3.90
2022-12-16T16:00:45.076Z,3.80
2022-12-16T16:03:51.160Z,3.80
2022-12-16T16:06:43.269Z,3.70
2022-12-16T16:09:40.391Z,3.70
2022-12-16T16:12:28.071Z,3.70
2022-12-16T16:15:13.334Z,3.70
2022-12-16T16:17:59.263Z,3.70
2022-12-16T16:20:45.126Z,3.60
2022-12-16T16:23:30.590Z,3.60
2022-12-16T16:26:16.947Z,3.60
2022-12-16T16:29:02.806Z,3.60
2022-12-16T16:31:48.084Z,3.60
2022-12-16T16:34:33.509Z,3.50
2022-12-16T16:37:19.065Z,3.50
2022-12-16T16:40:04.401Z,3.50
2022-12-16T16:42:50.321Z,3.50
2022-12-16T16:45:35.768Z,3.40
2022-12-16T16:48:30.807Z,3.40
2022-12-16T16:51:18.352Z,3.40
2022-12-16T16:54:04.112Z,3.30
2022-12-16T16:56:53.811Z,3.30
2022-12-16T16:59:43.204Z,3.30
2022-12-16T17:02:41.914Z,3.20
2022-12-16T17:05:29.272Z,3.20
2022-12-16T17:08:15.116Z,3.20
2022-12-16T17:11:00.595Z,3.20
2022-12-16T17:13:46.252Z,3.10
2022-12-16T17:16:33.352Z,3.10
2022-12-16T17:19:20.766Z,3.10
2022-12-16T17:22:06.536Z,3.00
2022-12-16T17:24:54.277Z,3.00
2022-12-16T17:27:43.067Z,3.00
2022-12-16T17:30:35.544Z,2.90
2022-12-16T17:33:21.803Z,2.90
2022-12-16T17:36:08.784Z,2.90
2022-12-16T17:38:59.836Z,2.80
2022-12-16T17:41:50.353Z,2.80
2022-12-16T17:44:36.892Z,2.80
2022-12-16T17:47:22.873Z,2.80
2022-12-16T17:50:08.213Z,2.70
2022-12-16T17:52:53.445Z,2.70
2022-12-16T17:55:38.986Z,2.70
2022-12-16T17:58:24.599Z,2.60
2022-12-16T18:01:09.891Z,2.60
2022-12-16T18:03:55.286Z,2.60
2022-12-16T18:06:40.666Z,2.60
2022-12-16T18:09:26.082Z,2.50
2022-12-16T18:12:11.337Z,2.50
2022-12-16T18:14:56.856Z,2.40
2022-12-16T18:17:42.228Z,2.40
2022-12-16T18:20:27.570Z,2.40
2022-12-16T18:23:13.471Z,2.40
2022-12-16T18:26:06.871Z,2.30
2022-12-16T18:28:52.517Z,2.30
2022-12-16T18:31:38.275Z,2.30
2022-12-16T18:34:26.818Z,2.20
2022-12-16T18:37:31.933Z,2.20
2022-12-16T18:40:17.677Z,2.20
2022-12-16T18:43:03.200Z,2.20
2022-12-16T18:45:49.908Z,2.10
2022-12-16T18:48:35.272Z,2.10
2022-12-16T18:51:20.890Z,2.10
2022-12-16T18:54:09.543Z,2.00
2022-12-16T18:56:55.222Z,2.00
2022-12-16T18:59:40.893Z,2.00
2022-12-16T19:02:27.807Z,2.00
2022-12-16T19:05:13.894Z,1.90
2022-12-16T19:07:59.508Z,1.90
2022-12-16T19:10:45.375Z,1.90
2022-12-16T19:13:35.248Z,1.90
2022-12-16T19:16:21.322Z,1.80
2022-12-16T19:19:06.911Z,1.80
2022-12-16T19:24:58.235Z,1.70
2022-12-16T19:27:44.146Z,1.70
2022-12-16T19:30:29.567Z,1.70
2022-12-16T19:33:14.988Z,1.70
2022-12-16T19:36:00.404Z,1.60
2022-12-16T19:38:46.069Z,1.60
2022-12-16T19:41:35.971Z,1.60
2022-12-16T19:44:22.586Z,1.60
2022-12-16T19:47:09.325Z,1.60
2022-12-16T19:49:54.988Z,1.50
2022-12-16T19:52:43.779Z,1.50
2022-12-16T19:55:29.616Z,1.50
2022-12-16T19:58:15.587Z,1.50
2022-12-16T20:01:01.123Z,1.50
2022-12-16T20:03:47.681Z,1.50
2022-12-16T20:06:33.721Z,1.50
2022-12-16T20:09:19.394Z,1.40
2022-12-16T20:12:05.237Z,1.40
2022-12-16T20:14:51.683Z,1.40
2022-12-16T20:17:37.320Z,1.40
2022-12-16T20:20:23.495Z,1.40
2022-12-16T20:23:08.831Z,1.40
2022-12-16T20:25:56.439Z,1.30
2022-12-16T20:28:42.572Z,1.30
2022-12-16T20:31:27.952Z,1.30
2022-12-16T20:34:16.256Z,1.30
2022-12-16T20:37:06.302Z,1.20
2022-12-16T20:39:56.306Z,1.20
2022-12-16T20:42:42.519Z,1.20
2022-12-16T20:45:27.974Z,1.20
2022-12-16T20:48:13.359Z,1.10
2022-12-16T20:50:58.759Z,1.10
2022-12-16T20:53:44.536Z,1.10
2022-12-16T20:56:29.990Z,1.10
2022-12-16T20:59:16.884Z,1.10
2022-12-16T21:02:22.726Z,1.10
2022-12-16T21:05:07.808Z,1.10
2022-12-16T21:07:53.912Z,1.00
2022-12-16T21:10:39.206Z,1.00
2022-12-16T21:13:32.355Z,1.00
2022-12-16T21:16:19.670Z,1.00
2022-12-16T21:19:05.497Z,1.00
2022-12-16T21:21:50.865Z,0.90
2022-12-16T21:24:37.338Z,0.90
2022-12-16T21:27:22.836Z,0.90
2022-12-16T21:30:08.659Z,0.90
2022-12-16T21:33:14.786Z,0.90
2022-12-16T21:36:00.102Z,0.90
2022-12-16T21:38:45.526Z,0.80
2022-12-16T21:41:31.064Z,0.80
2022-12-16T21:44:16.496Z,0.80
2022-12-16T21:47:01.801Z,0.80
2022-12-16T21:49:47.286Z,0.70
2022-12-16T21:52:32.844Z,0.70
2022-12-16T21:55:18.336Z,0.70
2022-12-16T21:58:03.765Z,0.70
2022-12-16T22:00:51.198Z,0.60
2022-12-16T22:03:39.134Z,0.60
2022-12-16T22:06:25.043Z,0.60
2022-12-16T22:09:10.514Z,0.60
2022-12-16T22:11:57.120Z,0.60
2022-12-16T22:14:42.974Z,0.50
2022-12-16T22:17:28.335Z,0.50
2022-12-16T22:20:13.782Z,0.50
2022-12-16T22:22:59.296Z,0.50
2022-12-16T22:25:44.882Z,0.40
2022-12-16T22:28:30.185Z,0.40
2022-12-16T22:31:16.340Z,0.40
2022-12-16T22:34:02.275Z,0.40
2022-12-16T22:36:19.996Z,1.80
2022-12-16T22:36:47.574Z,0.40
2022-12-16T22:39:33.091Z,0.40
2022-12-16T22:42:18.329Z,0.30
2022-12-16T22:45:03.808Z,0.40
2022-12-16T22:47:50.392Z,0.30
2022-12-16T22:50:35.972Z,0.30
2022-12-16T22:53:21.699Z,0.30
2022-12-16T22:56:14.537Z,0.30
2022-12-16T22:59:00.583Z,0.30
2022-12-16T23:01:45.984Z,0.30
2022-12-16T23:04:31.695Z,0.30
2022-12-16T23:07:17.276Z,0.30
2022-12-16T23:10:02.760Z,0.30
2022-12-16T23:12:48.681Z,0.20
2022-12-16T23:15:34.349Z,0.20
2022-12-16T23:18:19.841Z,0.20
2022-12-16T23:21:09.944Z,0.10
2022-12-16T23:23:56.896Z,0.10
2022-12-16T23:26:42.713Z,0.10
2022-12-16T23:29:28.250Z,0.00
2022-12-16T23:32:13.535Z,0.00
2022-12-16T23:35:00.632Z,0.00
2022-12-16T23:37:45.981Z,0.00
2022-12-16T23:40:31.142Z,0.00
2022-12-16T23:43:16.507Z,0.00
2022-12-16T23:46:02.799Z,0.00
2022-12-16T23:48:48.054Z,0.00
2022-12-16T23:51:33.463Z,0.00
2022-12-16T23:54:18.692Z,0.00
2022-12-16T23:57:04.227Z,-0.10
2022-12-16T23:59:49.772Z,-0.10
